createdAt,value
2019-06-08T00:00:25.502Z,994.5
2019-06-08T00:01:23.005Z,994.56
2019-06-08T00:02:23.071Z,994.59
2019-06-08T00:03:20.672Z,994.68
2019-06-08T00:04:20.678Z,994.59
2019-06-08T00:05:16.906Z,994.71
2019-06-08T00:06:20.768Z,994.68
2019-06-08T00:07:20.909Z,994.56
2019-06-08T00:08:20.887Z,994.59
2019-06-08T00:09:22.553Z,994.71
2019-06-08T00:10:22.792Z,994.65
2019-06-08T00:10:25.839Z,994.65
2019-06-08T00:11:16.970Z,994.6
2019-06-08T00:12:17.031Z,994.59
2019-06-08T00:13:21.347Z,994.73
2019-06-08T00:14:17.454Z,994.58
2019-06-08T00:15:14.053Z,994.62
2019-06-08T00:16:10.361Z,994.74
2019-06-08T00:17:29.345Z,994.68
2019-06-08T00:17:35.791Z,994.68
2019-06-08T00:17:37.075Z,994.68
2019-06-08T00:18:10.843Z,994.7
2019-06-08T00:19:06.915Z,994.63
2019-06-08T00:20:06.078Z,994.63
2019-06-08T00:21:05.384Z,994.65
2019-06-08T00:22:06.023Z,994.68
2019-06-08T00:23:02.114Z,994.66
2019-06-08T00:24:06.317Z,994.66
2019-06-08T00:25:05.675Z,994.68
2019-06-08T00:26:03.358Z,994.65
2019-06-08T00:27:06.406Z,994.68
2019-06-08T00:27:59.092Z,994.59
2019-06-08T00:28:55.026Z,994.7
2019-06-08T00:29:51.540Z,994.68
2019-06-08T00:30:48.182Z,994.66
2019-06-08T00:31:44.955Z,994.66
2019-06-08T00:32:41.737Z,994.76
2019-06-08T00:33:38.464Z,994.73
2019-06-08T00:34:34.990Z,994.73
2019-06-08T00:35:32.623Z,994.71
2019-06-08T00:36:30.591Z,994.64
2019-06-08T00:37:35.998Z,994.68
2019-06-08T00:38:29.249Z,994.68
2019-06-08T00:39:31.698Z,994.83
2019-06-08T00:40:31.614Z,994.73
2019-06-08T00:41:27.928Z,994.73
2019-06-08T00:42:25.567Z,994.68
2019-06-08T00:43:21.416Z,994.65
2019-06-08T00:44:19.270Z,994.64
2019-06-08T00:45:15.638Z,994.68
2019-06-08T00:46:12.899Z,994.56
2019-06-08T00:47:09.694Z,994.68
2019-06-08T00:48:16.737Z,994.7
2019-06-08T00:49:22.697Z,994.67
2019-06-08T00:50:18.793Z,994.7
2019-06-08T00:51:16.806Z,994.59
2019-06-08T00:52:16.857Z,994.59
2019-06-08T00:53:13.631Z,994.62
2019-06-08T00:54:09.240Z,994.64
2019-06-08T00:55:05.673Z,994.68
2019-06-08T00:56:02.805Z,994.61
2019-06-08T00:57:01.064Z,994.67
2019-06-08T00:57:56.553Z,994.68
2019-06-08T00:58:56.067Z,994.61
2019-06-08T00:59:58.045Z,994.67
2019-06-08T01:00:55.334Z,994.65
2019-06-08T01:01:54.766Z,994.73
2019-06-08T01:02:50.459Z,994.64
2019-06-08T01:03:50.537Z,994.68
2019-06-08T01:04:49.558Z,994.7
2019-06-08T01:05:45.181Z,994.73
2019-06-08T01:06:48.035Z,994.76
2019-06-08T01:07:44.633Z,994.71
2019-06-08T01:08:50.858Z,994.85
2019-06-08T01:09:49.179Z,994.79
2019-06-08T01:10:47.813Z,994.92
2019-06-08T01:11:40.697Z,994.88
2019-06-08T01:12:40.572Z,994.98
2019-06-08T01:13:39.493Z,994.9
2019-06-08T01:14:34.992Z,994.96
2019-06-08T01:15:34.249Z,994.88
2019-06-08T01:16:29.248Z,994.85
2019-06-08T01:17:25.106Z,994.89
2019-06-08T01:18:22.964Z,994.92
2019-06-08T01:19:17.478Z,994.85
2019-06-08T01:20:30.270Z,994.9
2019-06-08T01:21:27.762Z,994.9
2019-06-08T01:22:23.710Z,994.86
2019-06-08T01:23:23.427Z,994.95
2019-06-08T01:24:23.861Z,994.95
2019-06-08T01:25:25.810Z,994.96
2019-06-08T01:26:22.375Z,994.99
2019-06-08T01:27:19.963Z,994.98
2019-06-08T01:28:19.922Z,994.93
2019-06-08T01:29:15.125Z,994.98
2019-06-08T01:30:20.005Z,995.04
2019-06-08T01:31:14.479Z,995.02
2019-06-08T01:32:09.852Z,995.02
2019-06-08T01:33:06.341Z,994.99
2019-06-08T01:34:06.137Z,995.05
2019-06-08T01:35:01.885Z,994.99
2019-06-08T01:36:02.516Z,995.1
2019-06-08T01:37:01.489Z,995.04
2019-06-08T01:37:54.722Z,994.89
2019-06-08T01:38:56.195Z,995.11
2019-06-08T01:40:00.690Z,995.23
2019-06-08T01:41:07.374Z,994.99
2019-06-08T01:42:06.567Z,995.17
2019-06-08T01:43:02.470Z,995.17
2019-06-08T01:43:58.052Z,995.17
2019-06-08T01:44:54.440Z,994.99
2019-06-08T01:45:50.692Z,995.02
2019-06-08T01:46:49.061Z,995.2
2019-06-08T01:47:49.357Z,995.07
2019-06-08T01:48:42.115Z,995.15
2019-06-08T01:49:39.921Z,995.14
2019-06-08T01:50:38.119Z,995.23
2019-06-08T01:51:34.691Z,995.1
2019-06-08T01:52:30.914Z,995.05
2019-06-08T01:53:29.366Z,995.24
2019-06-08T01:54:29.755Z,995.18
2019-06-08T01:55:27.028Z,995.21
2019-06-08T01:56:24.953Z,995.18
2019-06-08T01:57:20.707Z,995.2
2019-06-08T01:58:20.677Z,995.18
2019-06-08T01:59:15.945Z,995.23
2019-06-08T02:00:29.833Z,995.24
2019-06-08T02:00:29.864Z,995.24
2019-06-08T02:00:32.563Z,995.24
2019-06-08T02:01:09.176Z,995.18
2019-06-08T02:02:08.555Z,995.17
2019-06-08T02:03:07.421Z,995.2
2019-06-08T02:04:02.491Z,995.11
2019-06-08T02:05:01.378Z,995.1
2019-06-08T02:06:32.438Z,995.14
2019-06-08T02:07:32.478Z,995.18
2019-06-08T02:08:28.737Z,995.21
2019-06-08T02:10:26.629Z,995.08
2019-06-08T02:11:26.694Z,995.13
2019-06-08T02:12:26.723Z,995.17
2019-06-08T02:13:26.790Z,995.17
2019-06-08T02:14:23.039Z,995.16
2019-06-08T02:15:20.365Z,995.07
2019-06-08T02:16:19.543Z,995.18
2019-06-08T02:17:20.100Z,995.24
2019-06-08T02:18:35.119Z,995.21
2019-06-08T02:18:36.373Z,995.21
2019-06-08T02:18:41.018Z,995.21
2019-06-08T02:19:19.464Z,995.32
2019-06-08T02:20:19.313Z,995.17
2019-06-08T02:21:19.831Z,995.24
2019-06-08T02:22:18.035Z,995.29
2019-06-08T02:23:31.040Z,995.27
2019-06-08T02:24:27.288Z,995.35
2019-06-08T02:25:22.986Z,995.35
2019-06-08T02:26:19.762Z,995.3
2019-06-08T02:27:19.909Z,995.42
2019-06-08T02:28:15.580Z,995.42
2019-06-08T02:29:12.807Z,995.39
2019-06-08T02:30:14.996Z,995.42
2019-06-08T02:31:11.762Z,995.38
2019-06-08T02:32:13.581Z,995.48
2019-06-08T02:33:09.469Z,995.32
2019-06-08T02:34:07.255Z,995.41
2019-06-08T02:35:03.995Z,995.36
2019-06-08T02:36:07.882Z,995.42
2019-06-08T02:37:05.779Z,995.52
2019-06-08T02:38:04.793Z,995.46
2019-06-08T02:39:01.963Z,995.51
2019-06-08T02:39:58.609Z,995.55
2019-06-08T02:40:53.929Z,995.48
2019-06-08T02:41:51.742Z,995.55
2019-06-08T02:42:48.948Z,995.52
2019-06-08T02:43:44.522Z,995.52
2019-06-08T02:44:40.679Z,995.64
2019-06-08T02:45:39.920Z,995.54
2019-06-08T02:46:35.465Z,995.52
2019-06-08T02:47:32.437Z,995.54
2019-06-08T02:48:31.427Z,995.62
2019-06-08T02:49:29.079Z,995.66
2019-06-08T02:50:30.281Z,995.67
2019-06-08T02:51:24.983Z,995.78
2019-06-08T02:52:20.346Z,995.79
2019-06-08T02:53:15.689Z,995.55
2019-06-08T02:54:23.207Z,995.83
2019-06-08T02:55:18.663Z,995.66
2019-06-08T02:56:15.396Z,995.73
2019-06-08T02:57:21.016Z,995.75
2019-06-08T02:58:17.221Z,995.84
2019-06-08T02:59:25.954Z,995.73
2019-06-08T03:00:20.130Z,995.79
2019-06-08T03:01:19.129Z,995.84
2019-06-08T03:02:16.721Z,995.79
2019-06-08T03:03:13.730Z,995.88
2019-06-08T03:04:14.429Z,995.82
2019-06-08T03:05:11.162Z,995.78
2019-06-08T03:06:08.762Z,995.82
2019-06-08T03:07:06.600Z,995.79
2019-06-08T03:08:04.465Z,995.88
2019-06-08T03:08:59.800Z,995.86
2019-06-08T03:09:56.334Z,995.89
2019-06-08T03:10:52.383Z,995.82
2019-06-08T03:11:49.414Z,995.92
2019-06-08T03:12:46.183Z,996.01
2019-06-08T03:13:43.267Z,995.97
2019-06-08T03:14:39.624Z,996.01
2019-06-08T03:15:38.625Z,996.08
2019-06-08T03:16:33.336Z,996.11
2019-06-08T03:17:29.094Z,996
2019-06-08T03:18:28.737Z,996.11
2019-06-08T03:19:22.674Z,996.13
2019-06-08T03:20:17.130Z,996.16
2019-06-08T03:21:20.537Z,996.26
2019-06-08T03:22:21.876Z,996.26
2019-06-08T03:23:19.038Z,996.2
2019-06-08T03:24:14.318Z,996.24
2019-06-08T03:25:11.393Z,996.23
2019-06-08T03:26:06.838Z,996.16
2019-06-08T03:27:03.041Z,996.19
2019-06-08T03:28:01.572Z,996.2
2019-06-08T03:29:01.796Z,996.26
2019-06-08T03:30:17.751Z,996.2
2019-06-08T03:30:17.911Z,996.2
2019-06-08T03:30:19.714Z,996.2
2019-06-08T03:31:04.749Z,996.22
2019-06-08T03:32:04.078Z,996.3
2019-06-08T03:33:05.354Z,996.26
2019-06-08T03:34:03.662Z,996.2
2019-06-08T03:34:59.910Z,996.23
2019-06-08T03:36:02.352Z,996.32
2019-06-08T03:37:04.318Z,996.35
2019-06-08T03:38:03.875Z,996.3
2019-06-08T03:39:03.621Z,996.27
2019-06-08T03:40:01.366Z,996.32
2019-06-08T03:41:07.273Z,996.38
2019-06-08T03:42:05.170Z,996.19
2019-06-08T03:43:03.256Z,996.3
2019-06-08T03:44:03.494Z,996.33
2019-06-08T03:45:08.598Z,996.27
2019-06-08T03:46:12.652Z,996.27
2019-06-08T03:47:12.909Z,996.27
2019-06-08T03:48:09.134Z,996.29
2019-06-08T03:49:05.298Z,996.25
2019-06-08T03:50:02.055Z,996.16
2019-06-08T03:51:00.560Z,996.33
2019-06-08T03:51:56.989Z,996.36
2019-06-08T03:52:52.549Z,996.41
2019-06-08T03:53:48.030Z,996.33
2019-06-08T03:54:45.266Z,996.41
2019-06-08T03:55:47.244Z,996.39
2019-06-08T03:56:47.086Z,996.42
2019-06-08T03:57:46.475Z,996.38
2019-06-08T03:58:47.791Z,996.42
2019-06-08T03:59:47.986Z,996.36
2019-06-08T04:00:56.387Z,996.45
2019-06-08T04:01:52.190Z,996.33
2019-06-08T04:02:50.277Z,996.41
2019-06-08T04:03:44.477Z,996.41
2019-06-08T04:04:41.750Z,996.51
2019-06-08T04:05:40.250Z,996.47
2019-06-08T04:06:39.950Z,996.45
2019-06-08T04:07:39.928Z,996.45
2019-06-08T04:08:35.261Z,996.45
2019-06-08T04:09:34.110Z,996.47
2019-06-08T04:10:31.111Z,996.45
2019-06-08T04:11:26.546Z,996.5
2019-06-08T04:12:28.073Z,996.59
2019-06-08T04:13:24.726Z,996.56
2019-06-08T04:14:20.329Z,996.5
2019-06-08T04:15:18.137Z,996.49
2019-06-08T04:16:18.117Z,996.56
2019-06-08T04:17:18.931Z,996.57
2019-06-08T04:18:14.097Z,996.56
2019-06-08T04:19:11.217Z,996.47
2019-06-08T04:20:11.893Z,996.42
2019-06-08T04:21:17.488Z,996.54
2019-06-08T04:22:12.980Z,996.44
2019-06-08T04:23:08.385Z,996.5
2019-06-08T04:24:13.275Z,996.47
2019-06-08T04:25:09.346Z,996.57
2019-06-08T04:26:05.655Z,996.42
2019-06-08T04:27:00.843Z,996.47
2019-06-08T04:27:59.888Z,996.53
2019-06-08T04:28:53.232Z,996.47
2019-06-08T04:29:53.898Z,996.54
2019-06-08T04:30:50.794Z,996.45
2019-06-08T04:31:48.004Z,996.47
2019-06-08T04:32:44.919Z,996.45
2019-06-08T04:33:40.361Z,996.44
2019-06-08T04:34:45.561Z,996.53
2019-06-08T04:35:42.565Z,996.44
2019-06-08T04:36:41.257Z,996.5
2019-06-08T04:37:40.305Z,996.38
2019-06-08T04:38:34.979Z,996.57
2019-06-08T04:39:38.255Z,996.57
2019-06-08T04:40:34.446Z,996.57
2019-06-08T04:41:38.499Z,996.62
2019-06-08T04:42:35.432Z,996.59
2019-06-08T04:43:32.518Z,996.6
2019-06-08T04:44:28.838Z,996.66
2019-06-08T04:45:25.561Z,996.63
2019-06-08T04:46:25.683Z,996.59
2019-06-08T04:47:21.762Z,996.59
2019-06-08T04:48:17.229Z,996.66
2019-06-08T04:49:13.267Z,996.62
2019-06-08T04:50:22.446Z,996.68
2019-06-08T04:50:23.223Z,996.68
2019-06-08T04:51:09.705Z,996.73
2019-06-08T04:52:09.045Z,996.72
2019-06-08T04:53:08.129Z,996.66
2019-06-08T04:54:09.214Z,996.75
2019-06-08T04:55:06.732Z,996.66
2019-06-08T04:56:08.942Z,996.72
2019-06-08T04:57:06.014Z,996.82
2019-06-08T04:58:05.009Z,996.72
2019-06-08T04:59:12.210Z,996.76
2019-06-08T05:00:13.145Z,996.71
2019-06-08T05:01:04.549Z,996.82
2019-06-08T05:01:59.899Z,996.72
2019-06-08T05:02:56.448Z,996.72
2019-06-08T05:03:52.994Z,996.76
2019-06-08T05:04:58.316Z,996.91
2019-06-08T05:05:58.397Z,996.88
2019-06-08T05:06:56.149Z,996.75
2019-06-08T05:07:54.277Z,996.74
2019-06-08T05:09:00.401Z,996.71
2019-06-08T05:09:55.773Z,996.98
2019-06-08T05:10:53.830Z,996.91
2019-06-08T05:11:49.976Z,996.91
2019-06-08T05:12:47.709Z,996.88
2019-06-08T05:13:54.309Z,996.93
2019-06-08T05:14:50.551Z,996.94
2019-06-08T05:15:50.229Z,997.06
2019-06-08T05:16:47.453Z,996.88
2019-06-08T05:17:45.621Z,997
2019-06-08T05:18:41.438Z,996.94
2019-06-08T05:19:43.645Z,996.82
2019-06-08T05:20:43.341Z,997.06
2019-06-08T05:21:36.801Z,996.97
2019-06-08T05:22:32.142Z,996.97
2019-06-08T05:23:32.971Z,997.07
2019-06-08T05:24:26.594Z,997.01
2019-06-08T05:25:27.602Z,996.94
2019-06-08T05:26:30.152Z,997
2019-06-08T05:27:26.570Z,997.07
2019-06-08T05:28:27.618Z,997.09
2019-06-08T05:29:26.395Z,997.07
2019-06-08T05:30:23.033Z,997.06
2019-06-08T05:31:18.623Z,997.19
2019-06-08T05:32:19.999Z,997
2019-06-08T05:33:15.137Z,997.06
2019-06-08T05:34:16.795Z,997.04
2019-06-08T05:35:12.597Z,997.1
2019-06-08T05:36:07.831Z,997.04
2019-06-08T05:37:08.631Z,997.07
2019-06-08T05:38:06.854Z,997.09
2019-06-08T05:39:06.077Z,997.07
2019-06-08T05:40:04.845Z,997.06
2019-06-08T05:41:00.131Z,997.13
2019-06-08T05:42:02.110Z,996.96
2019-06-08T05:42:57.497Z,997.04
2019-06-08T05:43:57.711Z,997.13
2019-06-08T05:44:06.329Z,997.06
2019-06-08T05:45:09.246Z,997.04
2019-06-08T05:46:12.610Z,997.12
2019-06-08T05:47:08.640Z,997.1
2019-06-08T05:48:04.948Z,997.15
2019-06-08T05:49:00.158Z,997.07
2019-06-08T05:49:56.371Z,997.07
2019-06-08T05:51:03.556Z,997.12
2019-06-08T05:51:04.147Z,997.12
2019-06-08T05:51:55.355Z,997.03
2019-06-08T05:52:51.258Z,997.1
2019-06-08T05:53:52.128Z,997.12
2019-06-08T05:54:50.073Z,997.25
2019-06-08T05:55:52.524Z,997.13
2019-06-08T05:56:47.988Z,997.32
2019-06-08T05:57:51.989Z,997.15
2019-06-08T05:58:48.121Z,997.29
2019-06-08T05:59:44.520Z,997.1
2019-06-08T06:00:42.167Z,997.23
2019-06-08T06:01:40.414Z,997.12
2019-06-08T06:02:36.161Z,997.28
2019-06-08T06:03:36.565Z,997.2
2019-06-08T06:04:31.929Z,997.29
2019-06-08T06:05:40.518Z,997.31
2019-06-08T06:06:44.594Z,997.35
2019-06-08T06:07:36.659Z,997.29
2019-06-08T06:08:33.623Z,997.35
2019-06-08T06:09:26.000Z,997.45
2019-06-08T06:10:24.840Z,997.41
2019-06-08T06:11:21.171Z,997.44
2019-06-08T06:12:34.028Z,997.44
2019-06-08T06:12:34.043Z,997.44
2019-06-08T06:13:21.855Z,997.54
2019-06-08T06:14:20.940Z,997.48
2019-06-08T06:15:18.860Z,997.42
2019-06-08T06:16:21.850Z,997.58
2019-06-08T06:17:22.295Z,997.44
2019-06-08T06:18:29.592Z,997.54
2019-06-08T06:19:29.471Z,997.44
2019-06-08T06:20:25.742Z,997.61
2019-06-08T06:21:21.380Z,997.63
2019-06-08T06:22:17.501Z,997.7
2019-06-08T06:23:16.745Z,997.57
2019-06-08T06:24:16.840Z,997.54
2019-06-08T06:25:11.367Z,997.6
2019-06-08T06:26:07.486Z,997.67
2019-06-08T06:27:03.246Z,997.7
2019-06-08T06:28:06.124Z,997.85
2019-06-08T06:29:00.655Z,997.73
2019-06-08T06:29:56.120Z,997.64
2019-06-08T06:30:52.854Z,997.67
2019-06-08T06:31:56.398Z,997.82
2019-06-08T06:32:54.831Z,997.77
2019-06-08T06:33:50.164Z,997.79
2019-06-08T06:34:52.280Z,997.94
2019-06-08T06:35:49.925Z,997.88
2019-06-08T06:36:43.900Z,997.8
2019-06-08T06:37:45.915Z,997.83
2019-06-08T06:38:52.494Z,997.91
2019-06-08T06:39:45.988Z,997.85
2019-06-08T06:40:41.916Z,997.95
2019-06-08T06:41:36.554Z,997.92
2019-06-08T06:42:32.687Z,997.91
2019-06-08T06:43:29.932Z,997.91
2019-06-08T06:44:30.522Z,997.92
2019-06-08T06:45:25.902Z,997.97
2019-06-08T06:46:21.097Z,997.95
2019-06-08T06:47:16.553Z,998
2019-06-08T06:48:13.020Z,998.2
2019-06-08T06:49:14.710Z,998.04
2019-06-08T06:50:12.915Z,998.27
2019-06-08T06:51:25.234Z,998.22
2019-06-08T06:51:25.647Z,998.22
2019-06-08T06:52:07.845Z,998.25
2019-06-08T06:53:05.779Z,998.19
2019-06-08T06:54:02.824Z,998.2
2019-06-08T06:54:58.143Z,998.11
2019-06-08T06:55:54.982Z,998.23
2019-06-08T06:56:54.052Z,998.37
2019-06-08T06:57:49.203Z,998.17
2019-06-08T06:58:51.537Z,998.26
2019-06-08T06:59:55.104Z,998.37
2019-06-08T07:00:54.557Z,998.31
2019-06-08T07:01:54.332Z,998.38
2019-06-08T07:01:57.462Z,998.38
2019-06-08T07:02:47.640Z,998.35
2019-06-08T07:03:44.110Z,998.26
2019-06-08T07:04:41.332Z,998.35
2019-06-08T07:05:37.107Z,998.51
2019-06-08T07:06:32.490Z,998.48
2019-06-08T07:07:34.372Z,998.4
2019-06-08T07:08:41.911Z,998.41
2019-06-08T07:09:39.123Z,998.35
2019-06-08T07:10:41.644Z,998.43
2019-06-08T07:11:39.579Z,998.11
2019-06-08T07:12:37.312Z,998.48
2019-06-08T07:13:33.920Z,998.44
2019-06-08T07:14:29.564Z,998.41
2019-06-08T07:15:24.631Z,998.53
2019-06-08T07:16:23.260Z,998.43
2019-06-08T07:17:22.136Z,998.46
2019-06-08T07:18:19.939Z,998.65
2019-06-08T07:19:17.231Z,998.44
2019-06-08T07:20:12.310Z,998.53
2019-06-08T07:21:12.408Z,998.5
2019-06-08T07:22:09.192Z,998.67
2019-06-08T07:23:05.996Z,998.5
2019-06-08T07:24:09.827Z,998.7
2019-06-08T07:25:10.246Z,998.5
2019-06-08T07:26:06.415Z,998.51
2019-06-08T07:27:07.248Z,998.7
2019-06-08T07:28:01.456Z,998.62
2019-06-08T07:28:58.871Z,998.63
2019-06-08T07:30:01.869Z,998.69
2019-06-08T07:31:04.091Z,998.67
2019-06-08T07:32:08.432Z,998.72
2019-06-08T07:33:04.448Z,998.63
2019-06-08T07:34:00.056Z,998.75
2019-06-08T07:34:59.501Z,998.67
2019-06-08T07:35:55.474Z,998.69
2019-06-08T07:36:53.543Z,998.72
2019-06-08T07:37:56.747Z,998.82
2019-06-08T07:38:53.848Z,998.78
2019-06-08T07:39:51.583Z,998.86
2019-06-08T07:40:48.821Z,998.81
2019-06-08T07:41:40.916Z,998.89
2019-06-08T07:42:40.181Z,998.91
2019-06-08T07:43:37.145Z,998.76
2019-06-08T07:44:37.599Z,998.89
2019-06-08T07:45:33.087Z,998.82
2019-06-08T07:46:32.980Z,998.95
2019-06-08T07:47:31.367Z,998.98
2019-06-08T07:48:24.461Z,998.92
2019-06-08T07:49:20.643Z,998.88
2019-06-08T07:50:20.788Z,998.88
2019-06-08T07:51:22.024Z,998.85
2019-06-08T07:52:17.299Z,998.85
2019-06-08T07:53:14.848Z,999.07
2019-06-08T07:54:10.461Z,998.82
2019-06-08T07:55:07.232Z,998.89
2019-06-08T07:56:03.551Z,999.05
2019-06-08T07:57:04.658Z,998.95
2019-06-08T07:58:06.695Z,998.97
2019-06-08T07:59:08.206Z,998.97
2019-06-08T08:00:09.211Z,999.01
2019-06-08T08:00:09.904Z,999.01
2019-06-08T08:01:07.764Z,998.97
2019-06-08T08:01:08.120Z,998.97
2019-06-08T08:01:58.388Z,999.01
2019-06-08T08:03:00.336Z,999.13
2019-06-08T08:03:56.438Z,999.11
2019-06-08T08:04:58.877Z,999.04
2019-06-08T08:05:56.717Z,999.1
2019-06-08T08:06:52.544Z,998.94
2019-06-08T08:07:48.331Z,999.05
2019-06-08T08:08:43.103Z,999.14
2019-06-08T08:09:39.889Z,999.1
2019-06-08T08:10:42.055Z,999.07
2019-06-08T08:11:38.972Z,999.08
2019-06-08T08:12:34.156Z,999.13
2019-06-08T08:13:34.437Z,999.1
2019-06-08T08:14:36.076Z,999.07
2019-06-08T08:15:32.089Z,999.02
2019-06-08T08:16:27.825Z,999.14
2019-06-08T08:17:28.339Z,999.08
2019-06-08T08:18:24.470Z,999.27
2019-06-08T08:19:26.870Z,999.2
2019-06-08T08:20:25.739Z,999.21
2019-06-08T08:21:29.549Z,999.23
2019-06-08T08:22:25.939Z,999.23
2019-06-08T08:23:21.862Z,999.26
2019-06-08T08:24:21.907Z,999.21
2019-06-08T08:25:18.365Z,999.16
2019-06-08T08:26:15.045Z,999.14
2019-06-08T08:27:22.311Z,999.24
2019-06-08T08:28:17.838Z,999.16
2019-06-08T08:29:18.627Z,999.16
2019-06-08T08:30:21.135Z,999.19
2019-06-08T08:31:18.591Z,999.32
2019-06-08T08:32:15.302Z,999.29
2019-06-08T08:33:10.597Z,999.35
2019-06-08T08:34:09.107Z,999.35
2019-06-08T08:35:05.156Z,999.26
2019-06-08T08:36:01.902Z,999.16
2019-06-08T08:36:58.916Z,999.29
2019-06-08T08:37:06.049Z,999.29
2019-06-08T08:37:09.539Z,999.29
2019-06-08T08:37:56.986Z,999.26
2019-06-08T08:38:03.913Z,999.26
2019-06-08T08:38:04.742Z,999.26
2019-06-08T08:38:56.660Z,999.45
2019-06-08T08:39:55.566Z,999.17
2019-06-08T08:40:56.439Z,999.3
2019-06-08T08:41:06.851Z,999.3
2019-06-08T08:41:08.312Z,999.3
2019-06-08T08:41:58.299Z,999.26
2019-06-08T08:42:04.934Z,999.26
2019-06-08T08:42:05.576Z,999.26
2019-06-08T08:42:58.706Z,999.24
2019-06-08T08:43:54.386Z,999.4
2019-06-08T08:44:52.329Z,999.48
2019-06-08T08:45:47.680Z,999.33
2019-06-08T08:46:42.471Z,999.49
2019-06-08T08:47:41.539Z,999.23
2019-06-08T08:49:05.949Z,999.42
2019-06-08T08:49:09.278Z,999.42
2019-06-08T08:49:10.430Z,999.42
2019-06-08T08:49:58.714Z,999.43
2019-06-08T08:51:03.253Z,999.46
2019-06-08T08:52:00.040Z,999.46
2019-06-08T08:52:58.485Z,999.1
2019-06-08T08:53:02.229Z,999.1
2019-06-08T08:53:55.835Z,999.4
2019-06-08T08:54:59.134Z,999.36
2019-06-08T08:55:52.407Z,999.54
2019-06-08T08:56:52.166Z,999.36
2019-06-08T08:57:50.723Z,999.48
2019-06-08T08:58:51.389Z,999.42
2019-06-08T08:59:56.009Z,999.55
2019-06-08T09:00:50.932Z,999.54
2019-06-08T09:01:48.127Z,999.56
2019-06-08T09:02:43.439Z,999.59
2019-06-08T09:03:44.998Z,999.45
2019-06-08T09:04:40.954Z,999.43
2019-06-08T09:05:38.171Z,999.55
2019-06-08T09:06:33.803Z,999.52
2019-06-08T09:07:29.137Z,999.67
2019-06-08T09:08:30.196Z,999.48
2019-06-08T09:09:28.683Z,999.61
2019-06-08T09:10:22.063Z,999.58
2019-06-08T09:11:21.531Z,999.49
2019-06-08T09:12:18.237Z,999.65
2019-06-08T09:13:19.391Z,999.67
2019-06-08T09:14:18.191Z,999.62
2019-06-08T09:15:12.139Z,999.59
2019-06-08T09:16:14.043Z,999.64
2019-06-08T09:17:09.911Z,999.56
2019-06-08T09:18:08.095Z,999.75
2019-06-08T09:19:04.437Z,999.65
2019-06-08T09:20:03.613Z,999.77
2019-06-08T09:21:00.338Z,999.77
2019-06-08T09:21:02.887Z,999.77
2019-06-08T09:21:54.352Z,999.61
2019-06-08T09:22:56.577Z,999.83
2019-06-08T09:23:03.073Z,999.83
2019-06-08T09:23:10.113Z,999.83
2019-06-08T09:23:48.939Z,999.67
2019-06-08T09:24:48.629Z,999.7
2019-06-08T09:25:44.611Z,999.83
2019-06-08T09:26:49.346Z,999.89
2019-06-08T09:27:44.388Z,999.92
2019-06-08T09:28:47.181Z,999.86
2019-06-08T09:29:42.820Z,999.95
2019-06-08T09:30:42.012Z,999.95
2019-06-08T09:31:39.729Z,1000.01
2019-06-08T09:32:38.250Z,1000.04
2019-06-08T09:33:38.673Z,1000.1
2019-06-08T09:34:31.901Z,1000.01
2019-06-08T09:35:30.368Z,999.95
2019-06-08T09:36:23.012Z,999.91
2019-06-08T09:37:19.408Z,1000.11
2019-06-08T09:38:20.170Z,1000.1
2019-06-08T09:39:18.537Z,1000.2
2019-06-08T09:40:13.506Z,1000.14
2019-06-08T09:41:12.725Z,1000.24
2019-06-08T09:42:09.221Z,1000.18
2019-06-08T09:43:14.406Z,1000.26
2019-06-08T09:44:11.976Z,1000.33
2019-06-08T09:45:09.395Z,1000.4
2019-06-08T09:46:09.202Z,1000.37
2019-06-08T09:47:09.468Z,1000.32
2019-06-08T09:47:12.394Z,1000.32
2019-06-08T09:48:03.992Z,1000.4
2019-06-08T09:49:11.879Z,1000.23
2019-06-08T09:50:09.228Z,1000.45
2019-06-08T09:51:12.989Z,1000.35
2019-06-08T09:52:11.781Z,1000.43
2019-06-08T09:53:23.080Z,1000.4
2019-06-08T09:53:24.340Z,1000.4
2019-06-08T09:53:26.819Z,1000.4
2019-06-08T09:54:08.533Z,1000.48
2019-06-08T09:54:12.725Z,1000.48
2019-06-08T09:55:05.012Z,1000.29
2019-06-08T09:56:03.930Z,1000.37
2019-06-08T09:57:03.564Z,1000.4
2019-06-08T09:58:01.897Z,1000.45
2019-06-08T09:58:06.647Z,1000.45
2019-06-08T09:58:11.513Z,1000.45
2019-06-08T09:59:01.352Z,1000.64
2019-06-08T09:59:06.068Z,1000.64
2019-06-08T09:59:10.695Z,1000.64
2019-06-08T09:59:57.157Z,1000.67
2019-06-08T10:01:04.236Z,1000.64
2019-06-08T10:02:05.092Z,1000.51
2019-06-08T10:02:07.405Z,1000.51
2019-06-08T10:02:12.427Z,1000.51
2019-06-08T10:02:58.855Z,1000.57
2019-06-08T10:03:56.705Z,1000.73
2019-06-08T10:04:52.120Z,1000.64
2019-06-08T10:05:48.447Z,1000.52
2019-06-08T10:06:44.656Z,1000.75
2019-06-08T10:07:40.980Z,1000.67
2019-06-08T10:08:38.770Z,1000.78
2019-06-08T10:09:38.130Z,1000.7
2019-06-08T10:10:34.664Z,1000.7
2019-06-08T10:11:30.498Z,1000.67
2019-06-08T10:12:28.229Z,1000.7
2019-06-08T10:13:23.695Z,1000.67
2019-06-08T10:14:20.074Z,1000.7
2019-06-08T10:15:17.898Z,1000.79
2019-06-08T10:16:18.354Z,1000.62
2019-06-08T10:17:18.163Z,1000.79
2019-06-08T10:17:21.079Z,1000.79
2019-06-08T10:18:30.905Z,1000.82
2019-06-08T10:19:28.661Z,1000.76
2019-06-08T10:20:28.770Z,1000.92
2019-06-08T10:21:25.376Z,1000.86
2019-06-08T10:22:22.204Z,1000.8
2019-06-08T10:23:30.802Z,1000.83
2019-06-08T10:23:33.514Z,1000.83
2019-06-08T10:23:34.269Z,1000.83
2019-06-08T10:24:17.558Z,1000.89
2019-06-08T10:25:13.394Z,1000.98
2019-06-08T10:26:09.225Z,1000.94
2019-06-08T10:27:08.018Z,1000.91
2019-06-08T10:28:08.968Z,1000.94
2019-06-08T10:28:14.003Z,1000.94
2019-06-08T10:28:15.918Z,1000.94
2019-06-08T10:29:03.291Z,1001.07
2019-06-08T10:30:00.017Z,1001.07
2019-06-08T10:31:00.923Z,1001.02
2019-06-08T10:31:55.233Z,1000.97
2019-06-08T10:32:51.075Z,1000.92
2019-06-08T10:33:48.768Z,1000.95
2019-06-08T10:34:47.979Z,1001.04
2019-06-08T10:35:43.901Z,1001.05
2019-06-08T10:36:43.437Z,1000.98
2019-06-08T10:37:40.122Z,1001.01
2019-06-08T10:38:38.371Z,1001
2019-06-08T10:38:41.281Z,1001
2019-06-08T10:39:32.528Z,1001.11
2019-06-08T10:40:32.722Z,1001.07
2019-06-08T10:41:27.817Z,1000.97
2019-06-08T10:42:22.257Z,1001.02
2019-06-08T10:43:21.497Z,1000.97
2019-06-08T10:44:18.929Z,1001.04
2019-06-08T10:45:18.491Z,1001.16
2019-06-08T10:46:20.684Z,1001.26
2019-06-08T10:47:16.332Z,1001.13
2019-06-08T10:48:17.781Z,1001.04
2019-06-08T10:49:14.210Z,1001.17
2019-06-08T10:50:15.281Z,1001.16
2019-06-08T10:51:13.106Z,1001.2
2019-06-08T10:52:12.189Z,1001.11
2019-06-08T10:53:16.303Z,1001.22
2019-06-08T10:54:17.401Z,1001.22
2019-06-08T10:55:22.102Z,1001.22
2019-06-08T10:56:18.886Z,1001.24
2019-06-08T10:57:18.127Z,1001.32
2019-06-08T10:58:19.393Z,1001.27
2019-06-08T10:59:14.116Z,1001.24
2019-06-08T11:00:18.031Z,1001.29
2019-06-08T11:00:20.936Z,1001.29
2019-06-08T11:00:23.704Z,1001.29
2019-06-08T11:01:11.134Z,1001.14
2019-06-08T11:01:13.325Z,1001.14
2019-06-08T11:02:07.838Z,1001.1
2019-06-08T11:02:13.803Z,1001.1
2019-06-08T11:03:05.449Z,1001.19
2019-06-08T11:04:01.566Z,1001.22
2019-06-08T11:04:58.817Z,1001.24
2019-06-08T11:05:04.725Z,1001.24
2019-06-08T11:05:11.703Z,1001.24
2019-06-08T11:05:53.430Z,1001.17
2019-06-08T11:06:52.263Z,1001.27
2019-06-08T11:07:50.184Z,1001.35
2019-06-08T11:08:45.840Z,1001.26
2019-06-08T11:09:50.633Z,1001.36
2019-06-08T11:10:47.447Z,1001.27
2019-06-08T11:11:41.923Z,1001.23
2019-06-08T11:12:39.785Z,1001.3
2019-06-08T11:13:36.134Z,1001.32
2019-06-08T11:14:34.640Z,1001.26
2019-06-08T11:15:31.384Z,1001.36
2019-06-08T11:16:28.689Z,1001.33
2019-06-08T11:17:24.214Z,1001.04